sensor_id;sensor_type;location;lat;lon;timestamp;temperature;humidity
9808;DHT22;4943;52.550;13.462;2022-10-16T00:01:39;17.00;99.90
9808;DHT22;4943;52.550;13.462;2022-10-16T00:04:08;17.00;99.90
9808;DHT22;4943;52.550;13.462;2022-10-16T00:06:37;17.00;99.90
9808;DHT22;4943;52.550;13.462;2022-10-16T00:09:06;17.00;99.90
9808;DHT22;4943;52.550;13.462;2022-10-16T00:11:38;17.00;99.90
9808;DHT22;4943;52.550;13.462;2022-10-16T00:14:09;17.00;99.90
9808;DHT22;4943;52.550;13.462;2022-10-16T00:16:38;17.10;99.90
9808;DHT22;4943;52.550;13.462;2022-10-16T00:19:07;17.10;99.90
9808;DHT22;4943;52.550;13.462;2022-10-16T00:21:35;17.10;99.90
9808;DHT22;4943;52.550;13.462;2022-10-16T00:24:06;17.10;99.90
9808;DHT22;4943;52.550;13.462;2022-10-16T00:26:37;17.10;99.90
9808;DHT22;4943;52.550;13.462;2022-10-16T00:29:07;17.20;99.90
9808;DHT22;4943;52.550;13.462;2022-10-16T00:31:35;17.20;99.90
9808;DHT22;4943;52.550;13.462;2022-10-16T00:34:04;17.20;99.90
9808;DHT22;4943;52.550;13.462;2022-10-16T00:36:32;17.20;99.90
9808;DHT22;4943;52.550;13.462;2022-10-16T00:39:01;17.20;99.90
9808;DHT22;4943;52.550;13.462;2022-10-16T00:41:32;17.20;99.90
9808;DHT22;4943;52.550;13.462;2022-10-16T00:44:41;17.20;99.90
9808;DHT22;4943;52.550;13.462;2022-10-16T00:46:52;17.20;99.90
9808;DHT22;4943;52.550;13.462;2022-10-16T00:49:21;17.10;99.90
9808;DHT22;4943;52.550;13.462;2022-10-16T00:51:50;17.10;99.90
9808;DHT22;4943;52.550;13.462;2022-10-16T00:54:22;17.10;99.90
9808;DHT22;4943;52.550;13.462;2022-10-16T00:56:51;17.10;99.90
9808;DHT22;4943;52.550;13.462;2022-10-16T00:59:25;17.10;99.90
9808;DHT22;4943;52.550;13.462;2022-10-16T01:01:54;17.10;99.90
9808;DHT22;4943;52.550;13.462;2022-10-16T01:04:23;17.10;99.90
9808;DHT22;4943;52.550;13.462;2022-10-16T01:06:58;17.10;99.90
9808;DHT22;4943;52.550;13.462;2022-10-16T01:09:34;17.10;99.90
9808;DHT22;4943;52.550;13.462;2022-10-16T01:12:10;17.10;99.90
9808;DHT22;4943;52.550;13.462;2022-10-16T01:14:47;17.10;99.90
9808;DHT22;4943;52.550;13.462;2022-10-16T01:17:19;17.10;99.90
9808;DHT22;4943;52.550;13.462;2022-10-16T01:20:09;17.10;99.90
9808;DHT22;4943;52.550;13.462;2022-10-16T01:22:46;17.10;99.90
9808;DHT22;4943;52.550;13.462;2022-10-16T01:25:22;17.10;99.90
9808;DHT22;4943;52.550;13.462;2022-10-16T01:27:55;17.10;99.90
9808;DHT22;4943;52.550;13.462;2022-10-16T01:30:26;17.10;99.90
9808;DHT22;4943;52.550;13.462;2022-10-16T01:33:01;17.10;99.90
9808;DHT22;4943;52.550;13.462;2022-10-16T01:35:34;17.10;99.90
9808;DHT22;4943;52.550;13.462;2022-10-16T01:38:06;17.10;99.90
9808;DHT22;4943;52.550;13.462;2022-10-16T01:40:39;17.10;99.90
9808;DHT22;4943;52.550;13.462;2022-10-16T01:43:13;17.10;99.90
9808;DHT22;4943;52.550;13.462;2022-10-16T01:45:44;17.20;99.90
9808;DHT22;4943;52.550;13.462;2022-10-16T01:48:18;17.20;99.90
9808;DHT22;4943;52.550;13.462;2022-10-16T01:50:53;17.20;99.90
9808;DHT22;4943;52.550;13.462;2022-10-16T01:53:23;17.20;99.90
9808;DHT22;4943;52.550;13.462;2022-10-16T01:55:54;17.20;99.90
9808;DHT22;4943;52.550;13.462;2022-10-16T01:58:25;17.20;99.90
9808;DHT22;4943;52.550;13.462;2022-10-16T02:00:54;17.30;99.90
9808;DHT22;4943;52.550;13.462;2022-10-16T02:03:24;17.20;99.90
9808;DHT22;4943;52.550;13.462;2022-10-16T02:05:54;17.30;99.90
9808;DHT22;4943;52.550;13.462;2022-10-16T02:08:24;17.30;99.90
9808;DHT22;4943;52.550;13.462;2022-10-16T02:10:55;17.30;99.90
9808;DHT22;4943;52.550;13.462;2022-10-16T02:13:29;17.30;99.90
9808;DHT22;4943;52.550;13.462;2022-10-16T02:15:59;17.30;99.90
9808;DHT22;4943;52.550;13.462;2022-10-16T02:18:27;17.30;99.90
9808;DHT22;4943;52.550;13.462;2022-10-16T02:20:59;17.30;99.90
9808;DHT22;4943;52.550;13.462;2022-10-16T02:23:37;17.40;99.90
9808;DHT22;4943;52.550;13.462;2022-10-16T02:26:13;17.40;99.90
9808;DHT22;4943;52.550;13.462;2022-10-16T02:28:46;17.40;99.90
9808;DHT22;4943;52.550;13.462;2022-10-16T02:31:26;17.40;99.90
9808;DHT22;4943;52.550;13.462;2022-10-16T02:33:58;17.40;99.90
9808;DHT22;4943;52.550;13.462;2022-10-16T02:36:27;17.50;99.90
9808;DHT22;4943;52.550;13.462;2022-10-16T02:38:56;17.40;99.90
9808;DHT22;4943;52.550;13.462;2022-10-16T02:41:25;17.50;99.90
9808;DHT22;4943;52.550;13.462;2022-10-16T02:43:55;17.40;99.90
9808;DHT22;4943;52.550;13.462;2022-10-16T02:46:23;17.50;99.90
9808;DHT22;4943;52.550;13.462;2022-10-16T02:48:51;17.50;99.90
9808;DHT22;4943;52.550;13.462;2022-10-16T02:51:20;17.50;99.90
9808;DHT22;4943;52.550;13.462;2022-10-16T02:53:48;17.50;99.90
9808;DHT22;4943;52.550;13.462;2022-10-16T02:56:17;17.50;99.90
9808;DHT22;4943;52.550;13.462;2022-10-16T02:58:46;17.50;99.90
9808;DHT22;4943;52.550;13.462;2022-10-16T03:01:16;17.50;99.90
9808;DHT22;4943;52.550;13.462;2022-10-16T03:03:44;17.50;99.90
9808;DHT22;4943;52.550;13.462;2022-10-16T03:06:13;17.50;99.90
9808;DHT22;4943;52.550;13.462;2022-10-16T03:08:41;17.50;99.90
9808;DHT22;4943;52.550;13.462;2022-10-16T03:11:10;17.50;99.90
9808;DHT22;4943;52.550;13.462;2022-10-16T03:13:38;17.40;99.90
9808;DHT22;4943;52.550;13.462;2022-10-16T03:16:07;17.40;99.90
9808;DHT22;4943;52.550;13.462;2022-10-16T03:18:37;17.40;99.90
9808;DHT22;4943;52.550;13.462;2022-10-16T03:21:05;17.40;99.90
9808;DHT22;4943;52.550;13.462;2022-10-16T03:23:35;17.40;99.90
9808;DHT22;4943;52.550;13.462;2022-10-16T03:26:03;17.30;99.90
9808;DHT22;4943;52.550;13.462;2022-10-16T03:28:32;17.30;99.90
9808;DHT22;4943;52.550;13.462;2022-10-16T03:31:00;17.30;99.90
9808;DHT22;4943;52.550;13.462;2022-10-16T03:33:28;17.30;99.90
9808;DHT22;4943;52.550;13.462;2022-10-16T03:35:59;17.30;99.90
9808;DHT22;4943;52.550;13.462;2022-10-16T03:38:27;17.30;99.90
9808;DHT22;4943;52.550;13.462;2022-10-16T03:40:56;17.20;99.90
9808;DHT22;4943;52.550;13.462;2022-10-16T03:43:24;17.20;99.90
9808;DHT22;4943;52.550;13.462;2022-10-16T03:45:52;17.20;99.90
9808;DHT22;4943;52.550;13.462;2022-10-16T03:48:20;17.20;99.90
9808;DHT22;4943;52.550;13.462;2022-10-16T03:50:49;17.20;99.90
9808;DHT22;4943;52.550;13.462;2022-10-16T03:53:19;17.20;99.90
9808;DHT22;4943;52.550;13.462;2022-10-16T03:55:48;17.10;99.90
9808;DHT22;4943;52.550;13.462;2022-10-16T03:58:16;17.10;99.90
9808;DHT22;4943;52.550;13.462;2022-10-16T04:00:45;17.10;99.90
9808;DHT22;4943;52.550;13.462;2022-10-16T04:03:14;17.10;99.90
9808;DHT22;4943;52.550;13.462;2022-10-16T04:05:43;17.10;99.90
9808;DHT22;4943;52.550;13.462;2022-10-16T04:08:11;17.10;99.90
9808;DHT22;4943;52.550;13.462;2022-10-16T04:10:42;17.10;99.90
9808;DHT22;4943;52.550;13.462;2022-10-16T04:13:10;17.10;99.90
9808;DHT22;4943;52.550;13.462;2022-10-16T04:15:39;17.10;99.90
9808;DHT22;4943;52.550;13.462;2022-10-16T04:18:07;17.00;99.90
9808;DHT22;4943;52.550;13.462;2022-10-16T04:20:35;17.00;99.90
9808;DHT22;4943;52.550;13.462;2022-10-16T04:23:04;17.00;99.90
9808;DHT22;4943;52.550;13.462;2022-10-16T04:25:32;17.00;99.90
9808;DHT22;4943;52.550;13.462;2022-10-16T04:28:02;17.00;99.90
9808;DHT22;4943;52.550;13.462;2022-10-16T04:30:31;17.00;99.90
9808;DHT22;4943;52.550;13.462;2022-10-16T04:33:00;17.00;99.90
9808;DHT22;4943;52.550;13.462;2022-10-16T04:35:28;17.00;99.90
9808;DHT22;4943;52.550;13.462;2022-10-16T04:37:57;17.00;99.90
9808;DHT22;4943;52.550;13.462;2022-10-16T04:40:26;17.00;99.90
9808;DHT22;4943;52.550;13.462;2022-10-16T04:42:54;16.90;99.90
9808;DHT22;4943;52.550;13.462;2022-10-16T04:45:24;16.90;99.90
9808;DHT22;4943;52.550;13.462;2022-10-16T04:47:53;16.90;99.90
9808;DHT22;4943;52.550;13.462;2022-10-16T04:50:24;16.90;99.90
9808;DHT22;4943;52.550;13.462;2022-10-16T04:52:53;16.90;99.90
9808;DHT22;4943;52.550;13.462;2022-10-16T04:55:22;16.90;99.90
9808;DHT22;4943;52.550;13.462;2022-10-16T04:57:51;16.80;99.90
9808;DHT22;4943;52.550;13.462;2022-10-16T05:00:19;16.80;99.90
9808;DHT22;4943;52.550;13.462;2022-10-16T05:02:49;16.80;99.90
9808;DHT22;4943;52.550;13.462;2022-10-16T05:05:18;16.80;99.90
9808;DHT22;4943;52.550;13.462;2022-10-16T05:07:46;16.80;99.90
9808;DHT22;4943;52.550;13.462;2022-10-16T05:10:14;16.80;99.90
9808;DHT22;4943;52.550;13.462;2022-10-16T05:12:43;16.80;99.90
9808;DHT22;4943;52.550;13.462;2022-10-16T05:15:11;16.80;99.90
9808;DHT22;4943;52.550;13.462;2022-10-16T05:17:40;16.80;99.90
9808;DHT22;4943;52.550;13.462;2022-10-16T05:20:12;16.80;99.90
9808;DHT22;4943;52.550;13.462;2022-10-16T05:22:40;16.80;99.90
9808;DHT22;4943;52.550;13.462;2022-10-16T05:25:09;16.70;99.90
9808;DHT22;4943;52.550;13.462;2022-10-16T05:27:37;16.80;99.90
9808;DHT22;4943;52.550;13.462;2022-10-16T05:30:07;16.80;99.90
9808;DHT22;4943;52.550;13.462;2022-10-16T05:32:38;16.80;99.90
9808;DHT22;4943;52.550;13.462;2022-10-16T05:35:07;16.70;99.90
9808;DHT22;4943;52.550;13.462;2022-10-16T05:37:40;16.80;99.90
9808;DHT22;4943;52.550;13.462;2022-10-16T05:40:08;16.80;99.90
9808;DHT22;4943;52.550;13.462;2022-10-16T05:42:37;16.80;99.90
9808;DHT22;4943;52.550;13.462;2022-10-16T05:45:06;16.80;99.90
9808;DHT22;4943;52.550;13.462;2022-10-16T05:47:37;16.80;99.90
9808;DHT22;4943;52.550;13.462;2022-10-16T05:50:06;16.90;99.90
9808;DHT22;4943;52.550;13.462;2022-10-16T05:52:35;16.90;99.90
9808;DHT22;4943;52.550;13.462;2022-10-16T05:55:07;16.90;99.90
9808;DHT22;4943;52.550;13.462;2022-10-16T05:57:35;17.00;99.90
9808;DHT22;4943;52.550;13.462;2022-10-16T06:00:04;17.00;99.90
9808;DHT22;4943;52.550;13.462;2022-10-16T06:02:32;17.00;99.90
9808;DHT22;4943;52.550;13.462;2022-10-16T06:05:01;17.00;99.90
9808;DHT22;4943;52.550;13.462;2022-10-16T06:07:33;17.00;99.90
9808;DHT22;4943;52.550;13.462;2022-10-16T06:10:02;17.00;99.90
9808;DHT22;4943;52.550;13.462;2022-10-16T06:12:32;17.00;99.90
9808;DHT22;4943;52.550;13.462;2022-10-16T06:15:00;16.90;99.90
9808;DHT22;4943;52.550;13.462;2022-10-16T06:17:28;17.00;99.90
9808;DHT22;4943;52.550;13.462;2022-10-16T06:19:57;17.00;99.90
9808;DHT22;4943;52.550;13.462;2022-10-16T06:22:25;17.00;99.90
9808;DHT22;4943;52.550;13.462;2022-10-16T06:24:53;17.10;99.90
9808;DHT22;4943;52.550;13.462;2022-10-16T06:27:22;17.10;99.90
9808;DHT22;4943;52.550;13.462;2022-10-16T06:29:52;17.20;99.90
9808;DHT22;4943;52.550;13.462;2022-10-16T06:32:20;17.20;99.90
9808;DHT22;4943;52.550;13.462;2022-10-16T06:34:48;17.30;99.90
9808;DHT22;4943;52.550;13.462;2022-10-16T06:37:16;17.40;99.90
9808;DHT22;4943;52.550;13.462;2022-10-16T06:39:45;17.40;99.90
9808;DHT22;4943;52.550;13.462;2022-10-16T06:42:13;17.40;99.90
9808;DHT22;4943;52.550;13.462;2022-10-16T06:44:42;17.50;99.90
9808;DHT22;4943;52.550;13.462;2022-10-16T06:47:11;17.50;99.90
9808;DHT22;4943;52.550;13.462;2022-10-16T06:49:40;17.50;99.90
9808;DHT22;4943;52.550;13.462;2022-10-16T06:52:08;17.60;99.90
9808;DHT22;4943;52.550;13.462;2022-10-16T06:54:36;17.60;99.90
9808;DHT22;4943;52.550;13.462;2022-10-16T06:57:08;17.70;99.90
9808;DHT22;4943;52.550;13.462;2022-10-16T06:59:36;17.70;99.90
9808;DHT22;4943;52.550;13.462;2022-10-16T07:02:04;17.70;99.90
9808;DHT22;4943;52.550;13.462;2022-10-16T07:04:35;17.70;99.90
9808;DHT22;4943;52.550;13.462;2022-10-16T07:07:04;17.80;99.90
9808;DHT22;4943;52.550;13.462;2022-10-16T07:09:35;17.80;99.90
9808;DHT22;4943;52.550;13.462;2022-10-16T07:12:04;17.90;99.90
9808;DHT22;4943;52.550;13.462;2022-10-16T07:14:32;17.90;99.90
9808;DHT22;4943;52.550;13.462;2022-10-16T07:17:01;18.10;99.90
9808;DHT22;4943;52.550;13.462;2022-10-16T07:19:29;18.20;99.90
9808;DHT22;4943;52.550;13.462;2022-10-16T07:22:01;18.40;99.90
9808;DHT22;4943;52.550;13.462;2022-10-16T07:24:30;18.50;99.90
9808;DHT22;4943;52.550;13.462;2022-10-16T07:27:00;18.60;99.90
9808;DHT22;4943;52.550;13.462;2022-10-16T07:29:28;18.70;99.90
9808;DHT22;4943;52.550;13.462;2022-10-16T07:31:57;18.80;99.90
9808;DHT22;4943;52.550;13.462;2022-10-16T07:34:26;18.80;99.90
9808;DHT22;4943;52.550;13.462;2022-10-16T07:36:55;18.90;99.90
9808;DHT22;4943;52.550;13.462;2022-10-16T07:39:27;18.90;99.90
9808;DHT22;4943;52.550;13.462;2022-10-16T07:41:55;18.90;99.90
9808;DHT22;4943;52.550;13.462;2022-10-16T07:44:24;18.90;99.90
9808;DHT22;4943;52.550;13.462;2022-10-16T07:46:52;18.90;99.90
9808;DHT22;4943;52.550;13.462;2022-10-16T07:49:21;19.00;99.90
9808;DHT22;4943;52.550;13.462;2022-10-16T07:51:50;19.10;99.90
9808;DHT22;4943;52.550;13.462;2022-10-16T07:54:19;19.00;99.90
9808;DHT22;4943;52.550;13.462;2022-10-16T07:56:49;19.00;99.90
9808;DHT22;4943;52.550;13.462;2022-10-16T07:59:18;19.10;99.90
9808;DHT22;4943;52.550;13.462;2022-10-16T08:01:46;19.00;99.90
9808;DHT22;4943;52.550;13.462;2022-10-16T08:04:16;19.00;99.90
9808;DHT22;4943;52.550;13.462;2022-10-16T08:06:45;19.00;99.90
9808;DHT22;4943;52.550;13.462;2022-10-16T08:09:13;18.90;99.90
9808;DHT22;4943;52.550;13.462;2022-10-16T08:11:42;18.90;99.90
9808;DHT22;4943;52.550;13.462;2022-10-16T08:14:11;19.00;99.90
9808;DHT22;4943;52.550;13.462;2022-10-16T08:16:39;19.00;99.90
9808;DHT22;4943;52.550;13.462;2022-10-16T08:19:08;19.10;99.90
9808;DHT22;4943;52.550;13.462;2022-10-16T08:21:36;19.10;99.90
9808;DHT22;4943;52.550;13.462;2022-10-16T08:24:05;19.20;99.90
9808;DHT22;4943;52.550;13.462;2022-10-16T08:26:33;19.20;99.90
9808;DHT22;4943;52.550;13.462;2022-10-16T08:29:01;19.30;99.90
9808;DHT22;4943;52.550;13.462;2022-10-16T08:31:31;19.30;99.90
9808;DHT22;4943;52.550;13.462;2022-10-16T08:33:59;19.30;99.90
9808;DHT22;4943;52.550;13.462;2022-10-16T08:36:28;19.30;99.90
9808;DHT22;4943;52.550;13.462;2022-10-16T08:38:56;19.30;99.90
9808;DHT22;4943;52.550;13.462;2022-10-16T08:41:42;19.30;99.90
9808;DHT22;4943;52.550;13.462;2022-10-16T08:44:30;19.40;99.90
9808;DHT22;4943;52.550;13.462;2022-10-16T08:47:08;19.40;99.90
9808;DHT22;4943;52.550;13.462;2022-10-16T08:49:42;19.50;99.90
9808;DHT22;4943;52.550;13.462;2022-10-16T08:52:12;19.50;99.90
9808;DHT22;4943;52.550;13.462;2022-10-16T08:54:44;19.60;99.90
9808;DHT22;4943;52.550;13.462;2022-10-16T08:57:17;19.60;99.90
9808;DHT22;4943;52.550;13.462;2022-10-16T08:59:50;19.70;99.90
9808;DHT22;4943;52.550;13.462;2022-10-16T09:02:30;19.70;99.90
9808;DHT22;4943;52.550;13.462;2022-10-16T09:05:21;19.70;99.90
9808;DHT22;4943;52.550;13.462;2022-10-16T09:08:01;19.70;99.90
9808;DHT22;4943;52.550;13.462;2022-10-16T09:10:43;19.80;99.90
9808;DHT22;4943;52.550;13.462;2022-10-16T09:13:22;19.80;99.90
9808;DHT22;4943;52.550;13.462;2022-10-16T09:15:58;19.90;99.90
9808;DHT22;4943;52.550;13.462;2022-10-16T09:18:33;20.00;99.90
9808;DHT22;4943;52.550;13.462;2022-10-16T09:21:11;20.10;99.90
9808;DHT22;4943;52.550;13.462;2022-10-16T09:23:42;20.20;99.90
9808;DHT22;4943;52.550;13.462;2022-10-16T09:26:14;20.20;99.90
9808;DHT22;4943;52.550;13.462;2022-10-16T09:28:43;20.10;99.90
9808;DHT22;4943;52.550;13.462;2022-10-16T09:31:16;20.10;99.90
9808;DHT22;4943;52.550;13.462;2022-10-16T09:33:50;20.10;99.90
9808;DHT22;4943;52.550;13.462;2022-10-16T09:36:21;20.10;99.90
9808;DHT22;4943;52.550;13.462;2022-10-16T09:39:00;20.00;99.90
9808;DHT22;4943;52.550;13.462;2022-10-16T09:41:29;20.00;99.90
9808;DHT22;4943;52.550;13.462;2022-10-16T09:43:58;19.90;99.90
9808;DHT22;4943;52.550;13.462;2022-10-16T09:46:29;19.80;99.90
9808;DHT22;4943;52.550;13.462;2022-10-16T09:49:00;19.80;99.90
9808;DHT22;4943;52.550;13.462;2022-10-16T09:51:31;19.80;99.90
9808;DHT22;4943;52.550;13.462;2022-10-16T09:54:01;19.90;99.90
9808;DHT22;4943;52.550;13.462;2022-10-16T09:56:32;19.90;99.90
9808;DHT22;4943;52.550;13.462;2022-10-16T09:59:08;19.90;99.90
9808;DHT22;4943;52.550;13.462;2022-10-16T10:01:40;19.90;99.90
9808;DHT22;4943;52.550;13.462;2022-10-16T10:04:11;19.90;99.90
9808;DHT22;4943;52.550;13.462;2022-10-16T10:06:43;20.00;99.90
9808;DHT22;4943;52.550;13.462;2022-10-16T10:09:17;20.10;99.90
9808;DHT22;4943;52.550;13.462;2022-10-16T10:11:54;20.20;99.90
9808;DHT22;4943;52.550;13.462;2022-10-16T10:14:31;20.30;99.90
9808;DHT22;4943;52.550;13.462;2022-10-16T10:17:11;20.30;99.90
9808;DHT22;4943;52.550;13.462;2022-10-16T10:19:46;20.40;99.90
9808;DHT22;4943;52.550;13.462;2022-10-16T10:22:30;20.40;99.90
9808;DHT22;4943;52.550;13.462;2022-10-16T10:25:15;20.40;99.90
9808;DHT22;4943;52.550;13.462;2022-10-16T10:28:07;20.50;99.90
9808;DHT22;4943;52.550;13.462;2022-10-16T10:30:44;20.50;99.90
9808;DHT22;4943;52.550;13.462;2022-10-16T10:33:24;20.50;99.90
9808;DHT22;4943;52.550;13.462;2022-10-16T10:36:03;20.50;99.90
9808;DHT22;4943;52.550;13.462;2022-10-16T10:38:41;20.50;99.90
9808;DHT22;4943;52.550;13.462;2022-10-16T10:41:35;20.60;99.90
9808;DHT22;4943;52.550;13.462;2022-10-16T10:44:13;20.60;99.90
9808;DHT22;4943;52.550;13.462;2022-10-16T10:46:50;20.70;99.90
9808;DHT22;4943;52.550;13.462;2022-10-16T10:49:39;20.70;99.90
9808;DHT22;4943;52.550;13.462;2022-10-16T10:52:34;20.80;99.90
9808;DHT22;4943;52.550;13.462;2022-10-16T10:55:16;20.90;99.90
9808;DHT22;4943;52.550;13.462;2022-10-16T10:58:03;21.00;99.90
9808;DHT22;4943;52.550;13.462;2022-10-16T11:00:41;21.00;99.90
9808;DHT22;4943;52.550;13.462;2022-10-16T11:03:24;21.10;99.90
9808;DHT22;4943;52.550;13.462;2022-10-16T11:05:58;21.30;99.90
9808;DHT22;4943;52.550;13.462;2022-10-16T11:08:32;21.40;99.90
9808;DHT22;4943;52.550;13.462;2022-10-16T11:11:04;21.50;99.90
9808;DHT22;4943;52.550;13.462;2022-10-16T11:13:38;21.50;99.90
9808;DHT22;4943;52.550;13.462;2022-10-16T11:16:14;21.50;99.90
9808;DHT22;4943;52.550;13.462;2022-10-16T11:18:51;21.50;99.90
9808;DHT22;4943;52.550;13.462;2022-10-16T11:21:24;21.50;99.90
9808;DHT22;4943;52.550;13.462;2022-10-16T11:24:01;21.50;99.90
9808;DHT22;4943;52.550;13.462;2022-10-16T11:26:35;21.50;99.90
9808;DHT22;4943;52.550;13.462;2022-10-16T11:29:13;21.50;99.90
9808;DHT22;4943;52.550;13.462;2022-10-16T11:31:47;21.40;99.90
9808;DHT22;4943;52.550;13.462;2022-10-16T11:34:24;21.20;99.90
9808;DHT22;4943;52.550;13.462;2022-10-16T11:36:57;21.10;99.90
9808;DHT22;4943;52.550;13.462;2022-10-16T11:39:29;21.00;99.90
9808;DHT22;4943;52.550;13.462;2022-10-16T11:42:03;20.90;99.90
9808;DHT22;4943;52.550;13.462;2022-10-16T11:44:43;20.80;99.90
9808;DHT22;4943;52.550;13.462;2022-10-16T11:47:24;20.70;99.90
9808;DHT22;4943;52.550;13.462;2022-10-16T11:50:20;20.60;99.90
9808;DHT22;4943;52.550;13.462;2022-10-16T11:52:56;20.50;99.90
9808;DHT22;4943;52.550;13.462;2022-10-16T11:55:32;20.50;99.90
9808;DHT22;4943;52.550;13.462;2022-10-16T11:58:05;20.40;99.90
9808;DHT22;4943;52.550;13.462;2022-10-16T12:00:39;20.40;99.90
9808;DHT22;4943;52.550;13.462;2022-10-16T12:03:17;20.40;99.90
9808;DHT22;4943;52.550;13.462;2022-10-16T12:06:06;20.40;99.90
9808;DHT22;4943;52.550;13.462;2022-10-16T12:08:40;20.30;99.90
9808;DHT22;4943;52.550;13.462;2022-10-16T12:11:23;20.30;99.90
9808;DHT22;4943;52.550;13.462;2022-10-16T12:14:04;20.30;99.90
9808;DHT22;4943;52.550;13.462;2022-10-16T12:16:33;20.20;99.90
9808;DHT22;4943;52.550;13.462;2022-10-16T12:19:12;20.20;99.90
9808;DHT22;4943;52.550;13.462;2022-10-16T12:21:42;20.20;99.90
9808;DHT22;4943;52.550;13.462;2022-10-16T12:24:26;20.20;99.90
9808;DHT22;4943;52.550;13.462;2022-10-16T12:26:57;20.30;99.90
9808;DHT22;4943;52.550;13.462;2022-10-16T12:29:34;20.30;99.90
9808;DHT22;4943;52.550;13.462;2022-10-16T12:32:04;20.30;99.90
9808;DHT22;4943;52.550;13.462;2022-10-16T12:34:38;20.30;99.90
9808;DHT22;4943;52.550;13.462;2022-10-16T12:37:12;20.40;99.90
9808;DHT22;4943;52.550;13.462;2022-10-16T12:39:42;20.40;99.90
9808;DHT22;4943;52.550;13.462;2022-10-16T12:42:23;20.40;99.90
9808;DHT22;4943;52.550;13.462;2022-10-16T12:44:58;20.40;99.90
9808;DHT22;4943;52.550;13.462;2022-10-16T12:47:46;20.40;99.90
9808;DHT22;4943;52.550;13.462;2022-10-16T12:50:29;20.40;99.90
9808;DHT22;4943;52.550;13.462;2022-10-16T12:52:59;20.40;99.90
9808;DHT22;4943;52.550;13.462;2022-10-16T12:55:33;20.40;99.90
9808;DHT22;4943;52.550;13.462;2022-10-16T12:58:16;20.40;99.90
9808;DHT22;4943;52.550;13.462;2022-10-16T13:00:50;20.50;99.90
9808;DHT22;4943;52.550;13.462;2022-10-16T13:03:47;20.50;99.90
9808;DHT22;4943;52.550;13.462;2022-10-16T13:06:30;20.50;99.90
9808;DHT22;4943;52.550;13.462;2022-10-16T13:09:21;20.50;99.90
9808;DHT22;4943;52.550;13.462;2022-10-16T13:12:05;20.60;99.90
9808;DHT22;4943;52.550;13.462;2022-10-16T13:15:02;20.60;99.90
9808;DHT22;4943;52.550;13.462;2022-10-16T13:17:38;20.60;99.90
9808;DHT22;4943;52.550;13.462;2022-10-16T13:20:17;20.70;99.90
9808;DHT22;4943;52.550;13.462;2022-10-16T13:22:53;20.70;99.90
9808;DHT22;4943;52.550;13.462;2022-10-16T13:25:28;20.80;99.90
9808;DHT22;4943;52.550;13.462;2022-10-16T13:28:01;20.80;99.90
9808;DHT22;4943;52.550;13.462;2022-10-16T13:30:32;20.80;99.90
9808;DHT22;4943;52.550;13.462;2022-10-16T13:33:14;20.80;99.90
9808;DHT22;4943;52.550;13.462;2022-10-16T13:35:49;20.80;99.90
9808;DHT22;4943;52.550;13.462;2022-10-16T13:38:20;20.70;99.90
9808;DHT22;4943;52.550;13.462;2022-10-16T13:40:50;20.70;99.90
9808;DHT22;4943;52.550;13.462;2022-10-16T13:43:20;20.70;99.90
9808;DHT22;4943;52.550;13.462;2022-10-16T13:45:57;20.70;99.90
9808;DHT22;4943;52.550;13.462;2022-10-16T13:48:26;20.70;99.90
9808;DHT22;4943;52.550;13.462;2022-10-16T13:51:02;20.70;99.90
9808;DHT22;4943;52.550;13.462;2022-10-16T13:53:31;20.70;99.90
9808;DHT22;4943;52.550;13.462;2022-10-16T13:56:02;20.70;99.90
9808;DHT22;4943;52.550;13.462;2022-10-16T13:58:31;20.70;99.90
9808;DHT22;4943;52.550;13.462;2022-10-16T14:01:03;20.80;99.90
9808;DHT22;4943;52.550;13.462;2022-10-16T14:03:33;20.80;99.90
9808;DHT22;4943;52.550;13.462;2022-10-16T14:06:04;20.80;99.90
9808;DHT22;4943;52.550;13.462;2022-10-16T14:08:35;20.80;99.90
9808;DHT22;4943;52.550;13.462;2022-10-16T14:11:03;20.70;99.90
9808;DHT22;4943;52.550;13.462;2022-10-16T14:13:36;20.70;99.90
9808;DHT22;4943;52.550;13.462;2022-10-16T14:16:09;20.70;99.90
9808;DHT22;4943;52.550;13.462;2022-10-16T14:18:39;20.70;99.90
9808;DHT22;4943;52.550;13.462;2022-10-16T14:21:13;20.70;99.90
9808;DHT22;4943;52.550;13.462;2022-10-16T14:23:43;20.70;99.90
9808;DHT22;4943;52.550;13.462;2022-10-16T14:26:17;20.60;99.90
9808;DHT22;4943;52.550;13.462;2022-10-16T14:28:47;20.60;99.90
9808;DHT22;4943;52.550;13.462;2022-10-16T14:31:28;20.60;99.90
9808;DHT22;4943;52.550;13.462;2022-10-16T14:33:57;20.60;99.90
9808;DHT22;4943;52.550;13.462;2022-10-16T14:36:26;20.60;99.90
9808;DHT22;4943;52.550;13.462;2022-10-16T14:39:02;20.60;99.90
9808;DHT22;4943;52.550;13.462;2022-10-16T14:41:33;20.60;99.90
9808;DHT22;4943;52.550;13.462;2022-10-16T14:44:11;20.50;99.90
9808;DHT22;4943;52.550;13.462;2022-10-16T14:46:42;20.50;99.90
9808;DHT22;4943;52.550;13.462;2022-10-16T14:49:17;20.50;99.90
9808;DHT22;4943;52.550;13.462;2022-10-16T14:51:47;20.50;99.90
9808;DHT22;4943;52.550;13.462;2022-10-16T14:54:17;20.40;99.90
9808;DHT22;4943;52.550;13.462;2022-10-16T14:56:48;20.40;99.90
9808;DHT22;4943;52.550;13.462;2022-10-16T14:59:19;20.40;99.90
9808;DHT22;4943;52.550;13.462;2022-10-16T15:01:51;20.40;99.90
9808;DHT22;4943;52.550;13.462;2022-10-16T15:04:19;20.40;99.90
9808;DHT22;4943;52.550;13.462;2022-10-16T15:06:49;20.40;99.90
9808;DHT22;4943;52.550;13.462;2022-10-16T15:09:17;20.30;99.90
9808;DHT22;4943;52.550;13.462;2022-10-16T15:11:46;20.30;99.90
9808;DHT22;4943;52.550;13.462;2022-10-16T15:14:14;20.30;99.90
9808;DHT22;4943;52.550;13.462;2022-10-16T15:16:43;20.30;99.90
9808;DHT22;4943;52.550;13.462;2022-10-16T15:19:14;20.20;99.90
9808;DHT22;4943;52.550;13.462;2022-10-16T15:21:42;20.20;99.90
9808;DHT22;4943;52.550;13.462;2022-10-16T15:24:13;20.20;99.90
9808;DHT22;4943;52.550;13.462;2022-10-16T15:26:47;20.10;99.90
9808;DHT22;4943;52.550;13.462;2022-10-16T15:29:16;20.10;99.90
9808;DHT22;4943;52.550;13.462;2022-10-16T15:31:44;20.10;99.90
9808;DHT22;4943;52.550;13.462;2022-10-16T15:34:15;20.00;99.90
9808;DHT22;4943;52.550;13.462;2022-10-16T15:36:46;20.00;99.90
9808;DHT22;4943;52.550;13.462;2022-10-16T15:39:16;20.00;99.90
9808;DHT22;4943;52.550;13.462;2022-10-16T15:41:46;19.90;99.90
9808;DHT22;4943;52.550;13.462;2022-10-16T15:44:18;19.90;99.90
9808;DHT22;4943;52.550;13.462;2022-10-16T15:46:47;19.90;99.90
9808;DHT22;4943;52.550;13.462;2022-10-16T15:49:17;19.80;99.90
9808;DHT22;4943;52.550;13.462;2022-10-16T15:51:45;19.80;99.90
9808;DHT22;4943;52.550;13.462;2022-10-16T15:54:14;19.80;99.90
9808;DHT22;4943;52.550;13.462;2022-10-16T15:56:42;19.70;99.90
9808;DHT22;4943;52.550;13.462;2022-10-16T15:59:12;19.70;99.90
9808;DHT22;4943;52.550;13.462;2022-10-16T16:01:40;19.60;99.90
9808;DHT22;4943;52.550;13.462;2022-10-16T16:04:08;19.50;99.90
9808;DHT22;4943;52.550;13.462;2022-10-16T16:06:59;19.50;99.90
9808;DHT22;4943;52.550;13.462;2022-10-16T16:09:29;19.40;99.90
9808;DHT22;4943;52.550;13.462;2022-10-16T16:11:57;19.30;99.90
9808;DHT22;4943;52.550;13.462;2022-10-16T16:14:28;19.30;99.90
9808;DHT22;4943;52.550;13.462;2022-10-16T16:16:57;19.20;99.90